Αρχική σελίδα
METAR-TAF:

METAR-TAF

Αεροδρόμια :

Νήσος Μαργαρίτα, Βενεζουέλα

γεωγραφικό πλάτος: 10-55N, γεωγραφικό μήκος: 063-59W, υψόμετρο: 23 μ

Παρών καιρός

Η αναφορά έγινε 29 λεπτά πριν, στις 03:03 UTC
Άνεμος 12 kt από Α
Θερμοκρασία 29°C
Υγρασία 84%
Πίεση 1015 hPa

METAR: SVMG 230303Z AUTO 10012KT NCD 29/26 Q1015

Χρόνος: 23:32 (03:32 UTC)

Πρόγνωση Καιρού

Η αναφορά έγινε 5 ώρες και 32 λεπτά πριν, στις 22:00 UTC
Η πρόγνωση ισχύει από τις 23 στις 00 UTC έως τις 24 στις 00 UTC
Άνεμος 12 kt από Α
Ορατότητα 10 χλμ και άνω
Διάσπαρτα νέφη σε ύψος 1000 πόδια
Προσωρινά
από 23 στις 00 UTC έως τις 23 στις 04 UTC
Άνεμος 8 kt από Α
Ορατότητα: 8000 μ
Αρκετά νέφη σε ύψος 1000 πόδια, Σωρειτομελανίτες.
καταιγίδα, Ψιλόβροχο,

TAF: SVMG 222200Z 2300/2400 10012KT 9999 SCT010 TX34/2218Z TN23/2308Z TEMPO 2300/2304 09008KT 8000 TSDZ BKN010CB

Μετεωρολογικές αναφορές και προγνώσεις για περισσότερα από 4000 αεροδρόμια (δελτία METAR και TAF).

Οι διαθέσιμοι σταθμοί απεικονίζονται στο χάρτη με κίτρινες και κόκκινες κουκκίδες.

Μετακινήστε το ποντίκι πάνω από τις κουκκίδες για να δείτε το όνομα του σταθμού.

Στη συνέχεια, κάντε κλικ για να δείτε τις μετεωρολογικές αναφορές και τις προγνώσεις καιρού.

Για να αλλάξετε το χάρτη: κάντε κλικ στα πράσινα κουμπιά με τον μαύρο σταυρό για να ζουμάρετε, στο πράσινο κουμπί με την παύλα για να αφαιρέσετε το ζουμ ή στα πράσινα βέλη για να αντιπαραβάλλετε χάρτες.


METAR-TAF: